Time;durP1;ratioP1;P1;durP2;ratioP2;P2;SDS_P1;SDS_P2;PMS_P1;PMS_P2;Temp;Humidity;BMP_temperature;BMP_pressure;BME280_temperature;BME280_humidity;BME280_pressure;Samples;Min_cycle;Max_cycle;Signal;HPM_P1;HPM_P2
2021/11/20 00:07:51;;;;;;;27.87;14.90;;;11.30;99.90;;;;;;6762732;87;20704;-80
2021/11/20 00:17:51;;;;;;;33.22;16.52;;;11.30;99.90;;;;;;6762918;87;20364;-81
2021/11/20 00:27:54;;;;;;;28.80;15.80;;;11.30;99.90;;;;;;6762064;87;20231;-80
2021/11/20 00:37:54;;;;;;;29.83;15.27;;;11.30;99.90;;;;;;6760373;88;20524;-81
2021/11/20 00:47:55;;;;;;;29.23;15.52;;;11.20;99.90;;;;;;6772684;87;20803;-80
2021/11/20 00:57:58;;;;;;;29.27;15.73;;;11.10;99.90;;;;;;6769439;87;20172;-79
2021/11/20 01:07:59;;;;;;;28.65;15.70;;;11.30;99.90;;;;;;6776363;87;20189;-80
2021/11/20 01:18:00;;;;;;;29.77;15.60;;;11.20;99.90;;;;;;6770925;87;20188;-80
2021/11/20 01:28:02;;;;;;;32.08;15.90;;;11.20;99.90;;;;;;6764687;87;20208;-79
2021/11/20 01:38:04;;;;;;;30.50;15.63;;;11.20;99.90;;;;;;6765405;87;20196;-78
2021/11/20 01:48:19;;;;;;;31.60;15.65;;;11.10;99.90;;;;;;6774267;87;20718;-80
2021/11/20 01:58:50;;;;;;;33.07;16.53;;;11.20;99.90;;;;;;6759169;87;20716;-80
2021/11/20 02:09:27;;;;;;;32.40;16.05;;;11.20;99.90;;;;;;6755215;88;20698;-81
2021/11/20 02:19:39;;;;;;;31.58;16.52;;;11.10;99.90;;;;;;6759517;87;20215;-82
2021/11/20 02:29:48;;;;;;;32.08;15.60;;;11.20;99.90;;;;;;6728380;87;20184;-80
2021/11/20 02:39:48;;;;;;;37.17;17.40;;;11.10;99.90;;;;;;6765832;87;20205;-81
2021/11/20 02:49:50;;;;;;;37.88;16.85;;;11.10;99.90;;;;;;6760052;87;20184;-78
2021/11/20 02:59:50;;;;;;;36.15;16.45;;;10.90;99.90;;;;;;6758505;87;20206;-78
2021/11/20 03:09:51;;;;;;;36.15;16.05;;;11.00;99.90;;;;;;6754196;88;20607;-78
2021/11/20 03:19:52;;;;;;;33.85;15.73;;;10.90;99.90;;;;;;6754224;88;20215;-78
2021/11/20 03:29:52;;;;;;;30.95;15.68;;;10.90;99.90;;;;;;6756094;87;20801;-78
2021/11/20 03:39:54;;;;;;;30.20;15.13;;;11.10;99.90;;;;;;6749788;88;20225;-81
2021/11/20 03:49:55;;;;;;;32.13;15.63;;;11.20;99.90;;;;;;6752561;88;20635;-78
2021/11/20 03:59:55;;;;;;;30.03;15.23;;;11.30;99.90;;;;;;6756387;88;20200;-78
2021/11/20 04:09:56;;;;;;;31.45;15.13;;;11.10;99.90;;;;;;6755920;88;20209;-78
2021/11/20 04:19:56;;;;;;;30.33;15.07;;;10.90;99.90;;;;;;6756748;88;20230;-78
2021/11/20 04:29:57;;;;;;;27.20;13.38;;;10.90;99.90;;;;;;6753026;88;20306;-78
2021/11/20 04:39:58;;;;;;;29.08;13.50;;;10.90;99.90;;;;;;6756731;88;21086;-78
2021/11/20 04:49:59;;;;;;;28.42;13.30;;;10.90;99.90;;;;;;6756903;87;20203;-78
2021/11/20 04:59:59;;;;;;;29.75;13.27;;;10.90;99.90;;;;;;6756542;88;20191;-78
2021/11/20 05:10:00;;;;;;;26.33;13.50;;;10.90;99.90;;;;;;6756167;88;20318;-78
2021/11/20 05:20:01;;;;;;;27.23;12.85;;;10.70;99.90;;;;;;6756253;88;20204;-79
2021/11/20 05:30:09;;;;;;;25.77;12.18;;;10.70;99.90;;;;;;6755961;88;20211;-78
2021/11/20 05:40:13;;;;;;;26.65;12.77;;;10.70;99.90;;;;;;6757477;88;20661;-78
2021/11/20 06:01:16;;;;;;;24.27;11.93;;;10.60;99.90;;;;;;6751481;88;20149;-82
2021/11/20 06:11:19;;;;;;;22.05;11.82;;;10.60;99.90;;;;;;6696573;89;20325;-83
2021/11/20 06:21:20;;;;;;;23.30;12.02;;;10.50;99.90;;;;;;6696501;89;20790;-83
2021/11/20 06:31:22;;;;;;;23.50;11.43;;;10.50;99.90;;;;;;6696402;89;20176;-82
2021/11/20 06:41:22;;;;;;;20.58;10.43;;;10.40;99.90;;;;;;6692675;89;20261;-83
2021/11/20 06:51:23;;;;;;;18.73;10.25;;;10.50;99.90;;;;;;6696395;89;20193;-82
2021/11/20 07:01:24;;;;;;;19.83;10.55;;;10.40;99.90;;;;;;6712087;88;20194;-83
2021/11/20 07:11:25;;;;;;;19.92;10.00;;;10.50;99.90;;;;;;6678233;89;20829;-82
2021/11/20 07:21:27;;;;;;;19.92;10.80;;;10.50;99.90;;;;;;6682170;89;20196;-83
2021/11/20 07:31:29;;;;;;;19.85;9.65;;;10.40;99.90;;;;;;6690950;88;20163;-81
2021/11/20 07:41:30;;;;;;;18.40;9.68;;;10.40;99.90;;;;;;6709473;88;20764;-81
2021/11/20 07:51:30;;;;;;;17.33;9.43;;;10.40;99.90;;;;;;6735486;88;20189;-80
2021/11/20 08:01:31;;;;;;;17.30;9.50;;;10.50;99.90;;;;;;6748065;88;20185;-79
2021/11/20 08:11:33;;;;;;;16.73;8.63;;;10.50;99.90;;;;;;6748577;88;20534;-81
2021/11/20 08:21:34;;;;;;;20.48;9.73;;;10.50;99.90;;;;;;6749454;88;20782;-82
2021/11/20 08:31:36;;;;;;;16.20;8.65;;;10.40;99.90;;;;;;6731307;88;20200;-82
2021/11/20 08:41:36;;;;;;;15.63;8.50;;;10.60;99.90;;;;;;6731289;88;20778;-80
2021/11/20 08:51:38;;;;;;;16.83;8.63;;;10.60;99.90;;;;;;6744244;88;20145;-81
2021/11/20 09:01:44;;;;;;;14.25;8.05;;;10.60;99.90;;;;;;6745550;88;20272;-81
2021/11/20 09:11:58;;;;;;;14.63;8.20;;;10.70;99.90;;;;;;6749063;88;20786;-80
2021/11/20 09:22:01;;;;;;;15.70;8.23;;;10.50;99.90;;;;;;6750144;88;20149;-81
2021/11/20 09:32:03;;;;;;;17.98;8.60;;;10.60;99.90;;;;;;6726281;88;20186;-80
2021/11/20 09:42:27;;;;;;;18.23;9.23;;;10.60;99.90;;;;;;6723294;88;20232;-79
2021/11/20 09:52:28;;;;;;;17.50;8.68;;;10.60;99.90;;;;;;6722513;88;20805;-81
2021/11/20 10:02:46;;;;;;;20.35;9.63;;;10.60;99.90;;;;;;6745861;88;20204;-80
2021/11/20 10:13:10;;;;;;;15.50;8.52;;;10.70;99.90;;;;;;6740165;88;20203;-80
2021/11/20 10:23:42;;;;;;;19.48;9.82;;;10.80;99.90;;;;;;6744447;88;20204;-79
2021/11/20 10:34:13;;;;;;;20.02;10.27;;;10.80;99.90;;;;;;6741882;88;20256;-79
2021/11/20 10:44:21;;;;;;;17.52;9.20;;;10.90;99.90;;;;;;6742877;88;20214;-81
2021/11/20 10:55:03;;;;;;;20.75;10.25;;;11.00;99.90;;;;;;6754740;88;20190;-81
2021/11/20 11:05:26;;;;;;;18.00;9.82;;;11.00;99.90;;;;;;6747539;88;20184;-81
2021/11/20 11:16:01;;;;;;;18.40;9.82;;;11.10;99.90;;;;;;6711096;88;20170;-82
2021/11/20 11:26:14;;;;;;;18.48;9.80;;;11.10;99.90;;;;;;6711672;88;20197;-80
2021/11/20 11:36:38;;;;;;;17.75;9.48;;;11.20;99.90;;;;;;6747221;88;20218;-82
2021/11/20 11:47:00;;;;;;;19.12;9.80;;;11.00;99.90;;;;;;6743793;88;20181;-80
2021/11/20 11:57:12;;;;;;;20.17;9.70;;;11.10;99.90;;;;;;6738139;88;20192;-83
2021/11/20 12:07:25;;;;;;;17.37;9.68;;;11.00;99.90;;;;;;6742595;88;20255;-82
2021/11/20 12:17:43;;;;;;;17.55;10.05;;;11.20;99.90;;;;;;6741374;88;20240;-80
2021/11/20 12:27:47;;;;;;;17.83;9.50;;;11.30;99.90;;;;;;6735381;88;20202;-79
2021/11/20 12:37:59;;;;;;;17.52;9.48;;;11.00;99.90;;;;;;6730884;88;20324;-81
2021/11/20 12:48:21;;;;;;;18.70;9.98;;;10.90;99.90;;;;;;6728404;88;20214;-80
2021/11/20 12:58:37;;;;;;;17.08;9.48;;;11.00;99.90;;;;;;6730933;88;20253;-80
2021/11/20 13:08:48;;;;;;;17.27;9.17;;;10.90;99.90;;;;;;6736329;88;20232;-80
2021/11/20 13:19:00;;;;;;;15.55;8.82;;;10.90;99.90;;;;;;6730261;88;20688;-81
2021/11/20 13:29:04;;;;;;;18.00;9.27;;;10.90;99.90;;;;;;6731538;88;20221;-80
2021/11/20 13:39:05;;;;;;;15.90;8.80;;;10.90;99.90;;;;;;6729617;88;20177;-80
2021/11/20 13:49:06;;;;;;;15.02;8.27;;;11.00;99.90;;;;;;6727262;88;20262;-80
2021/11/20 13:59:09;;;;;;;17.67;9.43;;;11.00;99.90;;;;;;6727564;88;20648;-82
2021/11/20 14:09:20;;;;;;;15.00;8.35;;;11.00;99.90;;;;;;6727385;88;20205;-81
2021/11/20 14:19:29;;;;;;;14.60;7.65;;;10.90;99.90;;;;;;6730940;88;20174;-81
2021/11/20 14:29:34;;;;;;;16.62;8.43;;;10.90;99.90;;;;;;6736291;88;20705;-81
2021/11/20 14:39:35;;;;;;;15.60;8.50;;;10.90;99.90;;;;;;6742673;88;20213;-81
2021/11/20 14:49:37;;;;;;;12.77;7.45;;;10.70;99.90;;;;;;6738627;88;20231;-83
2021/11/20 14:59:40;;;;;;;14.43;8.07;;;10.60;99.90;;;;;;6738465;88;20697;-82
2021/11/20 15:09:42;;;;;;;13.82;7.37;;;10.60;99.90;;;;;;6738345;88;20789;-84
2021/11/20 15:19:43;;;;;;;13.70;7.20;;;10.60;99.90;;;;;;6745807;88;21118;-80
2021/11/20 15:29:44;;;;;;;14.73;6.40;;;10.30;99.90;;;;;;6744806;88;20296;-83
2021/11/20 15:39:44;;;;;;;15.48;7.30;;;10.30;99.90;;;;;;6741576;88;21102;-82
2021/11/20 15:49:45;;;;;;;13.77;7.80;;;10.30;99.90;;;;;;6741737;88;20185;-82
2021/11/20 15:59:45;;;;;;;13.53;6.83;;;10.00;99.90;;;;;;6739992;88;20698;-82
2021/11/20 16:09:46;;;;;;;13.18;7.25;;;10.10;99.90;;;;;;6741038;88;20483;-82
2021/11/20 16:19:46;;;;;;;14.43;7.55;;;9.90;99.90;;;;;;6739184;88;20214;-81
2021/11/20 16:29:47;;;;;;;13.85;7.68;;;9.80;99.90;;;;;;6741286;88;20332;-82
2021/11/20 16:39:49;;;;;;;11.60;6.37;;;9.70;99.90;;;;;;6740806;88;20310;-81
2021/11/20 16:49:51;;;;;;;12.93;6.72;;;9.60;99.90;;;;;;6745792;88;20310;-81
2021/11/20 16:59:51;;;;;;;15.60;7.72;;;9.30;99.90;;;;;;6747540;88;20320;-81
2021/11/20 17:09:52;;;;;;;11.82;6.57;;;9.00;99.90;;;;;;6736801;88;20201;-77
2021/11/20 17:19:53;;;;;;;14.23;7.95;;;8.60;99.90;;;;;;6751460;88;20235;-78
2021/11/20 17:29:55;;;;;;;16.02;8.52;;;8.40;99.90;;;;;;6753574;88;20192;-79
2021/11/20 17:39:55;;;;;;;17.15;9.45;;;8.10;99.90;;;;;;6748445;88;20288;-79
2021/11/20 17:50:37;;;;;;;14.87;7.47;;;8.20;99.90;;;;;;6769748;77;20223;-80
2021/11/20 18:00:41;;;;;;;21.75;9.88;;;7.90;99.90;;;;;;6729252;88;20213;-78
2021/11/20 18:10:42;;;;;;;18.73;9.25;;;7.70;99.90;;;;;;6720292;88;20262;-76
2021/11/20 18:20:44;;;;;;;19.17;9.52;;;7.60;99.90;;;;;;6717885;88;20311;-77
2021/11/20 18:30:47;;;;;;;18.62;9.52;;;7.50;99.90;;;;;;6717183;88;20189;-77
2021/11/20 18:40:48;;;;;;;17.20;9.75;;;7.40;99.90;;;;;;6717287;88;20320;-76
2021/11/20 18:50:48;;;;;;;17.90;9.40;;;7.20;99.90;;;;;;6720037;88;20239;-74
2021/11/20 19:00:52;;;;;;;18.58;10.00;;;7.10;99.90;;;;;;6720685;88;20197;-74
2021/11/20 19:10:53;;;;;;;17.87;9.77;;;7.10;99.90;;;;;;6735136;88;20202;-74
2021/11/20 19:20:54;;;;;;;21.45;9.60;;;6.80;99.90;;;;;;6733696;88;20289;-76
2021/11/20 19:30:54;;;;;;;16.85;9.48;;;6.60;99.90;;;;;;6721699;88;20239;-76
2021/11/20 19:40:55;;;;;;;17.17;9.18;;;6.50;99.90;;;;;;6719131;88;20196;-76
2021/11/20 19:50:56;;;;;;;20.45;11.07;;;6.40;99.90;;;;;;6717593;88;20667;-76
2021/11/20 20:00:57;;;;;;;22.25;11.80;;;6.10;99.90;;;;;;6718176;88;20202;-77
2021/11/20 20:10:58;;;;;;;21.37;11.75;;;6.10;99.90;;;;;;6718648;88;20193;-77
2021/11/20 20:20:58;;;;;;;24.15;11.48;;;6.00;99.90;;;;;;6715157;88;20291;-76
2021/11/20 20:31:01;;;;;;;18.30;10.52;;;5.90;99.90;;;;;;6714305;88;20632;-76
2021/11/20 20:41:01;;;;;;;22.17;12.65;;;6.00;99.90;;;;;;6718892;88;20552;-76
2021/11/20 20:51:04;;;;;;;25.30;12.85;;;6.20;99.90;;;;;;6719094;88;20202;-76
2021/11/20 21:01:05;;;;;;;26.00;12.10;;;6.50;99.90;;;;;;6717639;88;20624;-76
2021/11/20 21:11:05;;;;;;;28.23;13.23;;;6.50;99.90;;;;;;6718879;88;20189;-76
2021/11/20 21:31:25;;;;;;;24.98;12.93;;;6.90;99.90;;;;;;6718212;88;21124;-77
2021/11/20 21:41:28;;;;;;;25.70;13.00;;;7.10;99.90;;;;;;6716979;88;20219;-76
2021/11/20 21:51:29;;;;;;;25.90;13.62;;;7.30;99.90;;;;;;6717486;88;20901;-76
2021/11/20 22:01:31;;;;;;;23.05;12.25;;;7.50;99.90;;;;;;6717413;88;20192;-76
2021/11/20 22:11:31;;;;;;;20.70;11.95;;;7.40;99.90;;;;;;6716954;88;20269;-76
2021/11/20 22:21:32;;;;;;;20.88;11.63;;;7.30;99.90;;;;;;6717056;88;20224;-76
2021/11/20 22:31:32;;;;;;;25.25;12.57;;;7.30;99.90;;;;;;6715295;88;20279;-76
2021/11/20 22:41:33;;;;;;;23.05;13.07;;;7.20;99.90;;;;;;6718084;88;20193;-76
2021/11/20 22:51:33;;;;;;;23.33;12.48;;;7.30;99.90;;;;;;6714080;88;20194;-75
2021/11/20 23:01:34;;;;;;;27.05;13.98;;;7.30;99.90;;;;;;6709954;88;20696;-76
2021/11/20 23:11:35;;;;;;;29.65;14.75;;;7.40;99.90;;;;;;6716814;88;20198;-76
2021/11/20 23:21:36;;;;;;;33.42;16.20;;;7.30;99.90;;;;;;6717106;88;20211;-76
2021/11/20 23:31:38;;;;;;;34.45;16.20;;;7.20;99.90;;;;;;6716686;88;20674;-76
2021/11/20 23:51:44;;;;;;;30.90;14.93;;;7.30;99.90;;;;;;6713486;88;20174;-79
